Terminal Aerodrome Forecast
Issued by NWS

Current Version | Previous Version | Text Only | Print | Product List | Glossary On
Versions: 1 2 3 4 5 6 7 8 9 10 11 12 13 14 15 16 17 18
000
FTUS43 KAPX 211133
TAFAPN
TAF
KAPN 211133Z 2112/2212 21010G18KT P6SM SCT150 WS020/23040KT
     FM211400 23011G20KT P6SM BKN050 WS020/23040KT
     FM211600 24012G20KT P6SM BKN035
     FM211800 26012G20KT P6SM VCSH BKN035
     FM212300 29011G20KT P6SM VCSH BKN040
     FM220300 30011KT P6SM BKN070=

USA.gov is the U.S. government's official web portal to all federal, state and local government web resources and services.